Terminal Aerodrome Forecast
Issued by NWS Green Bay, WI

Home | Current Version | Previous Version | Text Only | Print | Product List | Glossary On
Versions: 1 2 3 4 5 6 7 8 9 10 11 12 13 14 15 16
000
FTUS43 KGRB 101722
TAFGRB
TAF
KGRB 101722Z 1018/1118 29010KT P6SM SCT035 BKN080
      TEMPO 1018/1020 OVC035
     FM110500 VRB03KT P6SM -SN OVC022
     FM110800 10004KT 2SM -SN OVC015
      TEMPO 1110/1112 1SM -SN OVC012
     FM111300 09005KT 1SM -SN OVC015=

USA.gov is the U.S. government's official web portal to all federal, state and local government web resources and services.